sensor_id;sensor_type;location;lat;lon;timestamp;pressure;altitude;pressure_sealevel;temperature;humidity
68656;BME280;55638;51.122;13.606;2023-04-25T00:00:28;99287.00;;;6.94;48.31
68656;BME280;55638;51.122;13.606;2023-04-25T00:02:00;99290.16;;;6.99;48.12
68656;BME280;55638;51.122;13.606;2023-04-25T00:03:32;99286.34;;;7.02;48.31
68656;BME280;55638;51.122;13.606;2023-04-25T00:05:05;99290.50;;;7.06;48.24
68656;BME280;55638;51.122;13.606;2023-04-25T00:06:37;99291.94;;;7.10;48.11
68656;BME280;55638;51.122;13.606;2023-04-25T00:08:09;99285.47;;;7.12;48.14
68656;BME280;55638;51.122;13.606;2023-04-25T00:09:41;99295.81;;;7.17;48.28
68656;BME280;55638;51.122;13.606;2023-04-25T00:11:13;99292.03;;;7.20;48.22
68656;BME280;55638;51.122;13.606;2023-04-25T00:12:45;99292.63;;;7.23;48.13
68656;BME280;55638;51.122;13.606;2023-04-25T00:14:17;99289.69;;;7.26;47.96
68656;BME280;55638;51.122;13.606;2023-04-25T00:15:49;99284.91;;;7.30;48.01
68656;BME280;55638;51.122;13.606;2023-04-25T00:17:22;99290.13;;;7.31;47.96
68656;BME280;55638;51.122;13.606;2023-04-25T00:18:56;99285.38;;;7.35;47.69
68656;BME280;55638;51.122;13.606;2023-04-25T00:20:28;99288.75;;;7.37;47.78
68656;BME280;55638;51.122;13.606;2023-04-25T00:22:00;99283.41;;;7.37;47.61
68656;BME280;55638;51.122;13.606;2023-04-25T00:23:31;99282.41;;;7.38;47.45
68656;BME280;55638;51.122;13.606;2023-04-25T00:25:05;99285.09;;;7.38;47.82
68656;BME280;55638;51.122;13.606;2023-04-25T00:26:37;99280.59;;;7.38;47.46
68656;BME280;55638;51.122;13.606;2023-04-25T00:28:09;99279.72;;;7.38;47.65
68656;BME280;55638;51.122;13.606;2023-04-25T00:29:40;99285.09;;;7.38;47.61
68656;BME280;55638;51.122;13.606;2023-04-25T00:31:13;99292.19;;;7.39;47.44
68656;BME280;55638;51.122;13.606;2023-04-25T00:32:45;99285.09;;;7.38;47.61
68656;BME280;55638;51.122;13.606;2023-04-25T00:34:18;99283.41;;;7.37;47.55
68656;BME280;55638;51.122;13.606;2023-04-25T00:35:49;99285.38;;;7.35;47.71
68656;BME280;55638;51.122;13.606;2023-04-25T00:37:21;99283.66;;;7.34;47.66
68656;BME280;55638;51.122;13.606;2023-04-25T00:38:53;99283.06;;;7.30;47.46
68656;BME280;55638;51.122;13.606;2023-04-25T00:40:27;99279.66;;;7.28;47.70
68656;BME280;55638;51.122;13.606;2023-04-25T00:42:00;99283.59;;;7.24;47.52
68656;BME280;55638;51.122;13.606;2023-04-25T00:43:33;99284.69;;;7.22;47.40
68656;BME280;55638;51.122;13.606;2023-04-25T00:45:06;99276.31;;;7.15;47.27
68656;BME280;55638;51.122;13.606;2023-04-25T00:46:39;99265.16;;;7.10;47.09
68656;BME280;55638;51.122;13.606;2023-04-25T00:48:11;99274.53;;;7.04;47.26
68656;BME280;55638;51.122;13.606;2023-04-25T00:49:45;99276.88;;;6.98;47.29
68656;BME280;55638;51.122;13.606;2023-04-25T00:51:20;99272.88;;;6.92;47.51
68656;BME280;55638;51.122;13.606;2023-04-25T00:52:52;99267.19;;;6.85;47.29
68656;BME280;55638;51.122;13.606;2023-04-25T00:54:24;99278.50;;;6.78;47.39
68656;BME280;55638;51.122;13.606;2023-04-25T00:55:56;99280.00;;;6.70;47.54
68656;BME280;55638;51.122;13.606;2023-04-25T00:57:29;99274.28;;;6.64;47.68
68656;BME280;55638;51.122;13.606;2023-04-25T00:59:01;99280.38;;;6.55;47.76
68656;BME280;55638;51.122;13.606;2023-04-25T01:00:32;99276.38;;;6.49;47.92
68656;BME280;55638;51.122;13.606;2023-04-25T01:02:05;99278.84;;;6.41;48.15
68656;BME280;55638;51.122;13.606;2023-04-25T01:03:38;99282.09;;;6.33;48.47
68656;BME280;55638;51.122;13.606;2023-04-25T01:05:14;99284.31;;;6.28;48.17
68656;BME280;55638;51.122;13.606;2023-04-25T01:06:46;99275.06;;;6.21;48.22
68656;BME280;55638;51.122;13.606;2023-04-25T01:08:19;99281.78;;;6.15;48.13
68656;BME280;55638;51.122;13.606;2023-04-25T01:09:53;99275.22;;;6.08;48.16
68656;BME280;55638;51.122;13.606;2023-04-25T01:11:25;99273.03;;;6.02;48.30
68656;BME280;55638;51.122;13.606;2023-04-25T01:12:56;99277.88;;;5.97;48.30
68656;BME280;55638;51.122;13.606;2023-04-25T01:14:29;99273.97;;;5.90;48.48
68656;BME280;55638;51.122;13.606;2023-04-25T01:16:02;99276.16;;;5.85;48.78
68656;BME280;55638;51.122;13.606;2023-04-25T01:17:34;99273.94;;;5.79;48.57
68656;BME280;55638;51.122;13.606;2023-04-25T01:19:10;99277.97;;;5.73;49.48
68656;BME280;55638;51.122;13.606;2023-04-25T01:20:46;99272.97;;;5.68;48.74
68656;BME280;55638;51.122;13.606;2023-04-25T01:22:18;99271.50;;;5.64;48.92
68656;BME280;55638;51.122;13.606;2023-04-25T01:23:50;99278.09;;;5.60;48.88
68656;BME280;55638;51.122;13.606;2023-04-25T01:25:23;99274.91;;;5.55;48.84
68656;BME280;55638;51.122;13.606;2023-04-25T01:26:55;99275.13;;;5.52;49.23
68656;BME280;55638;51.122;13.606;2023-04-25T01:28:28;99276.22;;;5.49;49.12
68656;BME280;55638;51.122;13.606;2023-04-25T01:30:03;99269.53;;;5.44;49.36
68656;BME280;55638;51.122;13.606;2023-04-25T01:31:36;99273.28;;;5.41;49.53
68656;BME280;55638;51.122;13.606;2023-04-25T01:33:10;99267.22;;;5.39;49.46
68656;BME280;55638;51.122;13.606;2023-04-25T01:34:42;99271.84;;;5.37;49.55
68656;BME280;55638;51.122;13.606;2023-04-25T01:36:15;99268.41;;;5.35;49.51
68656;BME280;55638;51.122;13.606;2023-04-25T01:37:46;99267.56;;;5.35;49.69
68656;BME280;55638;51.122;13.606;2023-04-25T01:39:19;99272.16;;;5.33;49.91
68656;BME280;55638;51.122;13.606;2023-04-25T01:40:51;99266.09;;;5.31;49.71
68656;BME280;55638;51.122;13.606;2023-04-25T01:42:24;99270.56;;;5.30;49.74
68656;BME280;55638;51.122;13.606;2023-04-25T01:43:56;99269.88;;;5.28;49.91
68656;BME280;55638;51.122;13.606;2023-04-25T01:45:28;99276.06;;;5.28;49.60
68656;BME280;55638;51.122;13.606;2023-04-25T01:47:00;99270.06;;;5.25;49.84
68656;BME280;55638;51.122;13.606;2023-04-25T01:48:32;99270.16;;;5.23;50.01
68656;BME280;55638;51.122;13.606;2023-04-25T01:50:05;99262.16;;;5.23;50.02
68656;BME280;55638;51.122;13.606;2023-04-25T01:51:38;99268.47;;;5.22;50.10
68656;BME280;55638;51.122;13.606;2023-04-25T01:53:12;99276.63;;;5.21;50.50
68656;BME280;55638;51.122;13.606;2023-04-25T01:54:47;99270.38;;;5.20;49.95
68656;BME280;55638;51.122;13.606;2023-04-25T01:56:19;99275.03;;;5.18;50.00
68656;BME280;55638;51.122;13.606;2023-04-25T01:57:52;99282.19;;;5.18;49.83
68656;BME280;55638;51.122;13.606;2023-04-25T01:59:29;99277.91;;;5.15;49.77
68656;BME280;55638;51.122;13.606;2023-04-25T02:01:17;99276.31;;;5.13;49.88
68656;BME280;55638;51.122;13.606;2023-04-25T02:02:58;99283.50;;;5.12;49.66
68656;BME280;55638;51.122;13.606;2023-04-25T02:04:34;99274.88;;;5.09;49.74
68656;BME280;55638;51.122;13.606;2023-04-25T02:06:07;99274.97;;;5.07;49.85
68656;BME280;55638;51.122;13.606;2023-04-25T02:07:42;99282.25;;;5.05;49.93
68656;BME280;55638;51.122;13.606;2023-04-25T02:09:14;99277.00;;;5.03;50.05
68656;BME280;55638;51.122;13.606;2023-04-25T02:10:51;99273.72;;;5.00;49.89
68656;BME280;55638;51.122;13.606;2023-04-25T02:12:23;99277.38;;;4.99;50.16
68656;BME280;55638;51.122;13.606;2023-04-25T02:14:16;99273.94;;;4.97;49.73
68656;BME280;55638;51.122;13.606;2023-04-25T02:15:54;99281.34;;;4.93;50.06
68656;BME280;55638;51.122;13.606;2023-04-25T02:17:26;99283.28;;;4.91;50.23
68656;BME280;55638;51.122;13.606;2023-04-25T02:18:58;99277.19;;;4.89;50.20
68656;BME280;55638;51.122;13.606;2023-04-25T02:20:30;99279.97;;;4.88;50.27
68656;BME280;55638;51.122;13.606;2023-04-25T02:22:03;99275.59;;;4.87;50.31
68656;BME280;55638;51.122;13.606;2023-04-25T02:23:35;99274.00;;;4.84;50.17
68656;BME280;55638;51.122;13.606;2023-04-25T02:25:09;99273.16;;;4.83;50.72
68656;BME280;55638;51.122;13.606;2023-04-25T02:26:41;99273.28;;;4.82;50.26
68656;BME280;55638;51.122;13.606;2023-04-25T02:28:13;99273.38;;;4.80;50.43
68656;BME280;55638;51.122;13.606;2023-04-25T02:29:45;99273.38;;;4.80;50.23
68656;BME280;55638;51.122;13.606;2023-04-25T02:31:17;99266.34;;;4.79;50.21
68656;BME280;55638;51.122;13.606;2023-04-25T02:32:49;99271.91;;;4.76;50.30
68656;BME280;55638;51.122;13.606;2023-04-25T02:34:21;99273.84;;;4.74;50.34
68656;BME280;55638;51.122;13.606;2023-04-25T02:35:53;99274.81;;;4.73;50.32
68656;BME280;55638;51.122;13.606;2023-04-25T02:37:26;99274.06;;;4.71;50.48
68656;BME280;55638;51.122;13.606;2023-04-25T02:38:57;99268.84;;;4.70;50.32
68656;BME280;55638;51.122;13.606;2023-04-25T02:40:30;99273.44;;;4.68;50.65
68656;BME280;55638;51.122;13.606;2023-04-25T02:42:02;99270.91;;;4.66;50.53
68656;BME280;55638;51.122;13.606;2023-04-25T02:43:34;99274.66;;;4.64;50.80
68656;BME280;55638;51.122;13.606;2023-04-25T02:45:06;99273.78;;;4.63;50.50
68656;BME280;55638;51.122;13.606;2023-04-25T02:46:38;99274.13;;;4.58;50.74
68656;BME280;55638;51.122;13.606;2023-04-25T02:48:10;99275.94;;;4.58;50.82
68656;BME280;55638;51.122;13.606;2023-04-25T02:49:42;99274.38;;;4.55;50.78
68656;BME280;55638;51.122;13.606;2023-04-25T02:51:14;99261.13;;;4.54;50.73
68656;BME280;55638;51.122;13.606;2023-04-25T02:52:47;99261.34;;;4.51;50.46
68656;BME280;55638;51.122;13.606;2023-04-25T02:54:24;99265.09;;;4.48;50.52
68656;BME280;55638;51.122;13.606;2023-04-25T02:55:56;99271.53;;;4.46;50.89
68656;BME280;55638;51.122;13.606;2023-04-25T02:57:30;99270.75;;;4.44;50.80
68656;BME280;55638;51.122;13.606;2023-04-25T02:59:02;99265.66;;;4.41;50.78
68656;BME280;55638;51.122;13.606;2023-04-25T03:00:35;99268.53;;;4.38;50.80
68656;BME280;55638;51.122;13.606;2023-04-25T03:02:07;99263.44;;;4.34;50.76
68656;BME280;55638;51.122;13.606;2023-04-25T03:03:38;99268.97;;;4.31;50.90
68656;BME280;55638;51.122;13.606;2023-04-25T03:05:11;99266.53;;;4.28;50.91
68656;BME280;55638;51.122;13.606;2023-04-25T03:06:43;99259.72;;;4.24;50.98
68656;BME280;55638;51.122;13.606;2023-04-25T03:08:15;99268.69;;;4.23;51.06
68656;BME280;55638;51.122;13.606;2023-04-25T03:09:47;99264.44;;;4.21;51.24
68656;BME280;55638;51.122;13.606;2023-04-25T03:11:19;99265.63;;;4.17;51.24
68656;BME280;55638;51.122;13.606;2023-04-25T03:12:51;99271.03;;;4.15;51.13
68656;BME280;55638;51.122;13.606;2023-04-25T03:14:23;99269.44;;;4.12;51.22
68656;BME280;55638;51.122;13.606;2023-04-25T03:15:55;99266.91;;;4.11;51.04
68656;BME280;55638;51.122;13.606;2023-04-25T03:17:27;99264.44;;;4.08;51.25
68656;BME280;55638;51.122;13.606;2023-04-25T03:18:59;99266.38;;;4.06;51.28
68656;BME280;55638;51.122;13.606;2023-04-25T03:20:31;99265.72;;;4.02;51.29
68656;BME280;55638;51.122;13.606;2023-04-25T03:22:03;99271.19;;;4.01;51.38
68656;BME280;55638;51.122;13.606;2023-04-25T03:23:35;99267.75;;;3.99;51.45
68656;BME280;55638;51.122;13.606;2023-04-25T03:25:07;99272.34;;;3.97;51.60
68656;BME280;55638;51.122;13.606;2023-04-25T03:26:39;99269.69;;;3.97;51.51
68656;BME280;55638;51.122;13.606;2023-04-25T03:28:13;99268.19;;;3.93;51.53
68656;BME280;55638;51.122;13.606;2023-04-25T03:29:45;99264.69;;;3.92;51.66
68656;BME280;55638;51.122;13.606;2023-04-25T03:31:17;99263.00;;;3.91;51.63
68656;BME280;55638;51.122;13.606;2023-04-25T03:32:49;99270.22;;;3.89;51.67
68656;BME280;55638;51.122;13.606;2023-04-25T03:34:21;99270.22;;;3.89;51.86
68656;BME280;55638;51.122;13.606;2023-04-25T03:35:53;99274.72;;;3.88;51.89
68656;BME280;55638;51.122;13.606;2023-04-25T03:37:25;99265.97;;;3.86;51.79
68656;BME280;55638;51.122;13.606;2023-04-25T03:38:57;99266.81;;;3.87;51.71
68656;BME280;55638;51.122;13.606;2023-04-25T03:40:30;99270.44;;;3.86;51.56
68656;BME280;55638;51.122;13.606;2023-04-25T03:42:17;99263.41;;;3.85;51.61
68656;BME280;55638;51.122;13.606;2023-04-25T03:43:50;99273.22;;;3.84;51.60
68656;BME280;55638;51.122;13.606;2023-04-25T03:45:22;99268.00;;;3.83;51.97
68656;BME280;55638;51.122;13.606;2023-04-25T03:46:54;99276.00;;;3.83;52.00
68656;BME280;55638;51.122;13.606;2023-04-25T03:48:27;99268.97;;;3.82;51.77
68656;BME280;55638;51.122;13.606;2023-04-25T03:49:59;99262.78;;;3.81;51.98
68656;BME280;55638;51.122;13.606;2023-04-25T03:51:34;99267.16;;;3.82;52.00
68656;BME280;55638;51.122;13.606;2023-04-25T03:53:06;99264.47;;;3.82;52.08
68656;BME280;55638;51.122;13.606;2023-04-25T03:54:58;99269.72;;;3.84;52.34
68656;BME280;55638;51.122;13.606;2023-04-25T03:56:30;99261.59;;;3.85;52.53
68656;BME280;55638;51.122;13.606;2023-04-25T03:58:19;99268.53;;;3.88;52.55
68656;BME280;55638;51.122;13.606;2023-04-25T03:59:52;99261.25;;;3.90;52.66
68656;BME280;55638;51.122;13.606;2023-04-25T04:01:24;99265.53;;;3.93;52.50
68656;BME280;55638;51.122;13.606;2023-04-25T04:02:56;99268.19;;;3.93;52.55
68656;BME280;55638;51.122;13.606;2023-04-25T04:04:29;99265.31;;;3.96;52.22
68656;BME280;55638;51.122;13.606;2023-04-25T04:06:03;99267.88;;;3.97;52.46
68656;BME280;55638;51.122;13.606;2023-04-25T04:07:38;99266.16;;;3.96;52.24
68656;BME280;55638;51.122;13.606;2023-04-25T04:09:14;99268.97;;;3.95;52.26
68656;BME280;55638;51.122;13.606;2023-04-25T04:10:48;99270.66;;;3.96;52.35
68656;BME280;55638;51.122;13.606;2023-04-25T04:12:20;99276.94;;;3.95;52.29
68656;BME280;55638;51.122;13.606;2023-04-25T04:13:51;99271.63;;;3.95;51.99
68656;BME280;55638;51.122;13.606;2023-04-25T04:15:24;99273.53;;;3.93;52.04
68656;BME280;55638;51.122;13.606;2023-04-25T04:16:55;99273.66;;;3.91;52.41
68656;BME280;55638;51.122;13.606;2023-04-25T04:18:28;99276.41;;;3.89;52.67
68656;BME280;55638;51.122;13.606;2023-04-25T04:20:00;99270.22;;;3.89;52.47
68656;BME280;55638;51.122;13.606;2023-04-25T04:21:35;99273.88;;;3.88;52.52
68656;BME280;55638;51.122;13.606;2023-04-25T04:23:07;99271.28;;;3.86;52.86
68656;BME280;55638;51.122;13.606;2023-04-25T04:24:39;99266.81;;;3.87;52.67
68656;BME280;55638;51.122;13.606;2023-04-25T04:26:12;99270.34;;;3.87;52.79
68656;BME280;55638;51.122;13.606;2023-04-25T04:27:58;99272.03;;;3.88;52.42
68656;BME280;55638;51.122;13.606;2023-04-25T04:29:49;99271.94;;;3.90;52.26
68656;BME280;55638;51.122;13.606;2023-04-25T04:31:29;99276.41;;;3.89;52.56
68656;BME280;55638;51.122;13.606;2023-04-25T04:33:02;99274.50;;;3.92;52.56
68656;BME280;55638;51.122;13.606;2023-04-25T04:34:35;99282.50;;;3.92;52.52
68656;BME280;55638;51.122;13.606;2023-04-25T04:36:07;99280.56;;;3.94;52.55
68656;BME280;55638;51.122;13.606;2023-04-25T04:37:40;99272.56;;;3.94;52.36
68656;BME280;55638;51.122;13.606;2023-04-25T04:39:16;99281.44;;;3.94;52.55
68656;BME280;55638;51.122;13.606;2023-04-25T04:40:59;99284.75;;;3.98;52.45
68656;BME280;55638;51.122;13.606;2023-04-25T04:42:51;99283.75;;;3.99;52.46
68656;BME280;55638;51.122;13.606;2023-04-25T04:44:45;99283.69;;;4.00;52.48
68656;BME280;55638;51.122;13.606;2023-04-25T04:46:29;99285.38;;;4.01;52.64
68656;BME280;55638;51.122;13.606;2023-04-25T04:48:34;99280.88;;;4.02;52.37
68656;BME280;55638;51.122;13.606;2023-04-25T04:50:26;99287.91;;;4.03;52.34
68656;BME280;55638;51.122;13.606;2023-04-25T04:52:21;99286.97;;;4.04;52.40
68656;BME280;55638;51.122;13.606;2023-04-25T04:53:52;99290.50;;;4.04;52.49
68656;BME280;55638;51.122;13.606;2023-04-25T04:55:43;99293.88;;;4.06;52.68
68656;BME280;55638;51.122;13.606;2023-04-25T04:57:35;99289.31;;;4.08;52.43
68656;BME280;55638;51.122;13.606;2023-04-25T04:59:19;99291.97;;;4.08;52.54
68656;BME280;55638;51.122;13.606;2023-04-25T05:01:14;99290.06;;;4.10;52.96
68656;BME280;55638;51.122;13.606;2023-04-25T05:03:06;99292.59;;;4.12;52.67
68656;BME280;55638;51.122;13.606;2023-04-25T05:04:57;99295.19;;;4.13;52.64
68656;BME280;55638;51.122;13.606;2023-04-25T05:06:55;99290.56;;;4.16;52.57
68656;BME280;55638;51.122;13.606;2023-04-25T05:08:44;99298.34;;;4.19;52.49
68656;BME280;55638;51.122;13.606;2023-04-25T05:10:34;99302.63;;;4.21;52.68
68656;BME280;55638;51.122;13.606;2023-04-25T05:12:19;99299.81;;;4.23;52.75
68656;BME280;55638;51.122;13.606;2023-04-25T05:14:11;99310.28;;;4.26;52.86
68656;BME280;55638;51.122;13.606;2023-04-25T05:15:51;99305.56;;;4.29;52.99
68656;BME280;55638;51.122;13.606;2023-04-25T05:17:43;99301.84;;;4.32;53.13
68656;BME280;55638;51.122;13.606;2023-04-25T05:19:15;99310.47;;;4.35;53.54
68656;BME280;55638;51.122;13.606;2023-04-25T05:20:59;99310.88;;;4.42;53.68
68656;BME280;55638;51.122;13.606;2023-04-25T05:22:49;99313.13;;;4.48;53.68
68656;BME280;55638;51.122;13.606;2023-04-25T05:24:25;99305.41;;;4.56;54.34
68656;BME280;55638;51.122;13.606;2023-04-25T05:26:12;99309.75;;;4.70;55.12
68656;BME280;55638;51.122;13.606;2023-04-25T05:28:16;99307.06;;;4.94;55.92
68656;BME280;55638;51.122;13.606;2023-04-25T05:30:03;99305.03;;;5.22;56.28
68656;BME280;55638;51.122;13.606;2023-04-25T05:31:54;99297.97;;;5.56;56.50
68656;BME280;55638;51.122;13.606;2023-04-25T05:33:26;99295.38;;;5.90;56.71
68656;BME280;55638;51.122;13.606;2023-04-25T05:34:57;99291.47;;;6.28;56.69
68656;BME280;55638;51.122;13.606;2023-04-25T05:36:32;99292.63;;;6.68;56.29
68656;BME280;55638;51.122;13.606;2023-04-25T05:38:04;99293.63;;;7.11;56.10
68656;BME280;55638;51.122;13.606;2023-04-25T05:39:56;99293.75;;;7.62;55.39
68656;BME280;55638;51.122;13.606;2023-04-25T05:41:45;99293.88;;;8.13;54.88
68656;BME280;55638;51.122;13.606;2023-04-25T05:43:33;99292.25;;;8.62;54.35
68656;BME280;55638;51.122;13.606;2023-04-25T05:45:19;99297.56;;;9.12;53.38
68656;BME280;55638;51.122;13.606;2023-04-25T05:46:59;99295.00;;;9.59;53.08
68656;BME280;55638;51.122;13.606;2023-04-25T05:48:46;99283.56;;;10.04;52.15
68656;BME280;55638;51.122;13.606;2023-04-25T05:50:41;99292.59;;;10.50;50.90
68656;BME280;55638;51.122;13.606;2023-04-25T05:52:44;99295.50;;;10.94;49.71
68656;BME280;55638;51.122;13.606;2023-04-25T05:54:28;99292.41;;;11.24;49.02
68656;BME280;55638;51.122;13.606;2023-04-25T05:56:01;99294.31;;;11.50;48.38
68656;BME280;55638;51.122;13.606;2023-04-25T05:57:33;99284.03;;;11.71;47.64
68656;BME280;55638;51.122;13.606;2023-04-25T05:59:05;99294.38;;;11.94;47.12
68656;BME280;55638;51.122;13.606;2023-04-25T06:00:37;99286.88;;;12.14;46.69
68656;BME280;55638;51.122;13.606;2023-04-25T06:02:10;99291.22;;;12.33;46.20
68656;BME280;55638;51.122;13.606;2023-04-25T06:03:42;99293.13;;;12.48;45.39
68656;BME280;55638;51.122;13.606;2023-04-25T06:05:15;99295.53;;;12.60;44.11
68656;BME280;55638;51.122;13.606;2023-04-25T06:06:48;99296.91;;;12.64;43.60
68656;BME280;55638;51.122;13.606;2023-04-25T06:08:20;99303.16;;;12.64;43.11
68656;BME280;55638;51.122;13.606;2023-04-25T06:09:52;99305.50;;;12.59;42.73
68656;BME280;55638;51.122;13.606;2023-04-25T06:11:24;99300.06;;;12.51;42.67
68656;BME280;55638;51.122;13.606;2023-04-25T06:12:56;99297.47;;;12.41;42.54
68656;BME280;55638;51.122;13.606;2023-04-25T06:14:29;99300.63;;;12.28;42.27
68656;BME280;55638;51.122;13.606;2023-04-25T06:16:01;99293.97;;;12.15;42.24
68656;BME280;55638;51.122;13.606;2023-04-25T06:17:33;99298.13;;;12.01;42.06
68656;BME280;55638;51.122;13.606;2023-04-25T06:19:05;99295.31;;;11.85;42.15
68656;BME280;55638;51.122;13.606;2023-04-25T06:20:37;99296.00;;;11.69;42.29
68656;BME280;55638;51.122;13.606;2023-04-25T06:22:09;99295.03;;;11.52;42.33
68656;BME280;55638;51.122;13.606;2023-04-25T06:23:44;99290.34;;;11.36;42.33
68656;BME280;55638;51.122;13.606;2023-04-25T06:25:23;99292.88;;;11.20;42.60
68656;BME280;55638;51.122;13.606;2023-04-25T06:26:55;99292.44;;;11.06;42.62
68656;BME280;55638;51.122;13.606;2023-04-25T06:28:27;99290.09;;;10.94;42.50
68656;BME280;55638;51.122;13.606;2023-04-25T06:29:59;99296.00;;;10.79;42.65
68656;BME280;55638;51.122;13.606;2023-04-25T06:31:31;99291.84;;;10.67;42.79
68656;BME280;55638;51.122;13.606;2023-04-25T06:33:04;99296.53;;;10.55;43.12
68656;BME280;55638;51.122;13.606;2023-04-25T06:34:37;99296.59;;;10.46;42.75
68656;BME280;55638;51.122;13.606;2023-04-25T06:36:10;99295.78;;;10.35;42.93
68656;BME280;55638;51.122;13.606;2023-04-25T06:37:42;99289.59;;;10.25;43.09
68656;BME280;55638;51.122;13.606;2023-04-25T06:39:14;99292.16;;;10.17;43.37
68656;BME280;55638;51.122;13.606;2023-04-25T06:40:46;99295.63;;;10.09;43.48
68656;BME280;55638;51.122;13.606;2023-04-25T06:42:18;99294.34;;;10.04;43.52
68656;BME280;55638;51.122;13.606;2023-04-25T06:43:56;99296.78;;;9.97;43.77
68656;BME280;55638;51.122;13.606;2023-04-25T06:45:33;99294.38;;;9.94;43.81
68656;BME280;55638;51.122;13.606;2023-04-25T06:47:05;99301.78;;;9.92;43.46
68656;BME280;55638;51.122;13.606;2023-04-25T06:48:37;99298.53;;;9.88;43.70
68656;BME280;55638;51.122;13.606;2023-04-25T06:50:09;99297.81;;;9.86;43.86
68656;BME280;55638;51.122;13.606;2023-04-25T06:51:43;99296.13;;;9.85;43.76
68656;BME280;55638;51.122;13.606;2023-04-25T06:53:15;99298.09;;;9.83;43.69
68656;BME280;55638;51.122;13.606;2023-04-25T06:54:50;99297.38;;;9.81;43.66
68656;BME280;55638;51.122;13.606;2023-04-25T06:56:31;99299.38;;;9.79;43.71
68656;BME280;55638;51.122;13.606;2023-04-25T06:58:09;99294.00;;;9.79;43.60
68656;BME280;55638;51.122;13.606;2023-04-25T07:00:05;99292.28;;;9.78;43.44
68656;BME280;55638;51.122;13.606;2023-04-25T07:01:41;99300.53;;;9.77;43.67
68656;BME280;55638;51.122;13.606;2023-04-25T07:03:19;99294.28;;;9.76;43.48
68656;BME280;55638;51.122;13.606;2023-04-25T07:04:51;99297.94;;;9.75;43.78
68656;BME280;55638;51.122;13.606;2023-04-25T07:06:23;99295.97;;;9.77;43.62
68656;BME280;55638;51.122;13.606;2023-04-25T07:07:57;99292.44;;;9.77;43.80
68656;BME280;55638;51.122;13.606;2023-04-25T07:09:30;99300.53;;;9.77;44.05
68656;BME280;55638;51.122;13.606;2023-04-25T07:11:05;99305.63;;;9.80;44.07
68656;BME280;55638;51.122;13.606;2023-04-25T07:12:37;99299.94;;;9.83;43.81
68656;BME280;55638;51.122;13.606;2023-04-25T07:14:09;99300.63;;;9.85;43.92
68656;BME280;55638;51.122;13.606;2023-04-25T07:15:41;99298.53;;;9.88;43.80
68656;BME280;55638;51.122;13.606;2023-04-25T07:17:13;99306.28;;;9.91;44.17
68656;BME280;55638;51.122;13.606;2023-04-25T07:18:45;99299.63;;;9.95;44.36
68656;BME280;55638;51.122;13.606;2023-04-25T07:20:18;99306.97;;;10.03;44.85
68656;BME280;55638;51.122;13.606;2023-04-25T07:21:49;99308.31;;;10.17;45.24
68656;BME280;55638;51.122;13.606;2023-04-25T07:23:25;99312.25;;;10.32;45.38
68656;BME280;55638;51.122;13.606;2023-04-25T07:24:57;99306.94;;;10.50;45.45
68656;BME280;55638;51.122;13.606;2023-04-25T07:26:31;99299.47;;;10.72;45.34
68656;BME280;55638;51.122;13.606;2023-04-25T07:28:23;99305.69;;;11.00;45.32
68656;BME280;55638;51.122;13.606;2023-04-25T07:29:55;99309.31;;;11.26;45.29
68656;BME280;55638;51.122;13.606;2023-04-25T07:31:27;99310.06;;;11.54;44.88
68656;BME280;55638;51.122;13.606;2023-04-25T07:32:59;99307.13;;;11.84;44.09
68656;BME280;55638;51.122;13.606;2023-04-25T07:34:31;99306.44;;;12.08;43.59
68656;BME280;55638;51.122;13.606;2023-04-25T07:36:04;99298.78;;;12.29;42.89
68656;BME280;55638;51.122;13.606;2023-04-25T07:37:36;99307.50;;;12.49;42.52
68656;BME280;55638;51.122;13.606;2023-04-25T07:39:14;99307.88;;;12.62;42.32
68656;BME280;55638;51.122;13.606;2023-04-25T07:40:48;99309.28;;;12.74;42.17
68656;BME280;55638;51.122;13.606;2023-04-25T07:42:20;99308.50;;;12.90;41.79
68656;BME280;55638;51.122;13.606;2023-04-25T07:43:54;99306.84;;;13.06;41.93
68656;BME280;55638;51.122;13.606;2023-04-25T07:45:26;99304.50;;;13.19;42.05
68656;BME280;55638;51.122;13.606;2023-04-25T07:46:58;99303.53;;;13.36;42.32
68656;BME280;55638;51.122;13.606;2023-04-25T07:48:32;99300.31;;;13.57;42.27
68656;BME280;55638;51.122;13.606;2023-04-25T07:50:04;99304.75;;;13.83;41.81
68656;BME280;55638;51.122;13.606;2023-04-25T07:51:37;99306.75;;;14.05;41.35
68656;BME280;55638;51.122;13.606;2023-04-25T07:53:14;99307.19;;;14.25;40.84
68656;BME280;55638;51.122;13.606;2023-04-25T07:54:52;99310.19;;;14.47;40.29
68656;BME280;55638;51.122;13.606;2023-04-25T07:56:30;99300.81;;;14.57;39.78
68656;BME280;55638;51.122;13.606;2023-04-25T07:58:22;99299.59;;;14.68;39.56
68656;BME280;55638;51.122;13.606;2023-04-25T07:59:58;99313.16;;;14.76;39.45
68656;BME280;55638;51.122;13.606;2023-04-25T08:01:33;99317.19;;;14.80;38.67
68656;BME280;55638;51.122;13.606;2023-04-25T08:03:09;99316.16;;;14.81;37.89
68656;BME280;55638;51.122;13.606;2023-04-25T08:04:41;99315.88;;;14.76;37.67
68656;BME280;55638;51.122;13.606;2023-04-25T08:06:16;99320.81;;;14.65;37.43
68656;BME280;55638;51.122;13.606;2023-04-25T08:08:09;99325.91;;;14.51;37.58
68656;BME280;55638;51.122;13.606;2023-04-25T08:09:41;99327.66;;;14.36;37.67
68656;BME280;55638;51.122;13.606;2023-04-25T08:11:20;99322.13;;;14.21;37.81
68656;BME280;55638;51.122;13.606;2023-04-25T08:12:53;99328.06;;;14.08;38.05
68656;BME280;55638;51.122;13.606;2023-04-25T08:14:27;99328.75;;;13.94;37.96
68656;BME280;55638;51.122;13.606;2023-04-25T08:15:58;99330.97;;;13.82;38.35
68656;BME280;55638;51.122;13.606;2023-04-25T08:17:30;99333.03;;;13.72;38.50
68656;BME280;55638;51.122;13.606;2023-04-25T08:19:03;99336.72;;;13.63;38.45
68656;BME280;55638;51.122;13.606;2023-04-25T08:20:35;99330.44;;;13.54;38.82
68656;BME280;55638;51.122;13.606;2023-04-25T08:22:10;99331.94;;;13.49;38.77
68656;BME280;55638;51.122;13.606;2023-04-25T08:23:52;99337.88;;;13.44;39.01